sensor_id;sensor_type;location;lat;lon;timestamp;P1;durP1;ratioP1;P2;durP2;ratioP2
77701;SDS011;66868;42.708;23.404;2023-02-28T00:00:48;36.55;;;20.17;;
77701;SDS011;66868;42.708;23.404;2023-02-28T00:03:14;30.55;;;18.60;;
77701;SDS011;66868;42.708;23.404;2023-02-28T00:05:39;26.40;;;16.35;;
77701;SDS011;66868;42.708;23.404;2023-02-28T00:08:06;25.40;;;15.55;;
77701;SDS011;66868;42.708;23.404;2023-02-28T00:10:32;27.67;;;16.10;;
77701;SDS011;66868;42.708;23.404;2023-02-28T00:13:02;28.23;;;17.38;;
77701;SDS011;66868;42.708;23.404;2023-02-28T00:15:29;26.13;;;16.15;;
77701;SDS011;66868;42.708;23.404;2023-02-28T00:17:55;29.92;;;17.73;;
77701;SDS011;66868;42.708;23.404;2023-02-28T00:20:21;31.17;;;17.60;;
77701;SDS011;66868;42.708;23.404;2023-02-28T00:22:47;33.85;;;16.73;;
77701;SDS011;66868;42.708;23.404;2023-02-28T00:25:27;27.40;;;15.95;;
77701;SDS011;66868;42.708;23.404;2023-02-28T00:28:01;25.60;;;14.65;;
77701;SDS011;66868;42.708;23.404;2023-02-28T00:30:49;25.08;;;14.68;;
77701;SDS011;66868;42.708;23.404;2023-02-28T00:33:15;32.35;;;16.45;;
77701;SDS011;66868;42.708;23.404;2023-02-28T00:35:41;29.73;;;18.08;;
77701;SDS011;66868;42.708;23.404;2023-02-28T00:38:06;31.15;;;16.27;;
77701;SDS011;66868;42.708;23.404;2023-02-28T00:40:32;29.08;;;17.42;;
77701;SDS011;66868;42.708;23.404;2023-02-28T00:42:57;25.13;;;14.52;;
77701;SDS011;66868;42.708;23.404;2023-02-28T00:45:28;23.37;;;14.67;;
77701;SDS011;66868;42.708;23.404;2023-02-28T00:47:54;27.73;;;16.00;;
77701;SDS011;66868;42.708;23.404;2023-02-28T00:50:19;28.67;;;17.00;;
77701;SDS011;66868;42.708;23.404;2023-02-28T00:52:45;27.08;;;14.23;;
77701;SDS011;66868;42.708;23.404;2023-02-28T00:55:11;22.60;;;14.20;;
77701;SDS011;66868;42.708;23.404;2023-02-28T00:57:37;21.13;;;14.63;;
77701;SDS011;66868;42.708;23.404;2023-02-28T01:00:03;28.90;;;17.60;;
77701;SDS011;66868;42.708;23.404;2023-02-28T01:02:29;25.17;;;15.60;;
77701;SDS011;66868;42.708;23.404;2023-02-28T01:04:55;28.98;;;15.43;;
77701;SDS011;66868;42.708;23.404;2023-02-28T01:07:21;23.70;;;14.47;;
77701;SDS011;66868;42.708;23.404;2023-02-28T01:09:47;21.13;;;14.07;;
77701;SDS011;66868;42.708;23.404;2023-02-28T01:12:13;24.87;;;14.47;;
77701;SDS011;66868;42.708;23.404;2023-02-28T01:14:38;25.20;;;14.13;;
77701;SDS011;66868;42.708;23.404;2023-02-28T01:17:03;23.67;;;14.32;;
77701;SDS011;66868;42.708;23.404;2023-02-28T01:19:29;24.57;;;14.33;;
77701;SDS011;66868;42.708;23.404;2023-02-28T01:21:54;23.67;;;13.20;;
77701;SDS011;66868;42.708;23.404;2023-02-28T01:24:19;26.95;;;14.20;;
77701;SDS011;66868;42.708;23.404;2023-02-28T01:26:45;26.63;;;15.97;;
77701;SDS011;66868;42.708;23.404;2023-02-28T01:29:10;26.57;;;15.03;;
77701;SDS011;66868;42.708;23.404;2023-02-28T01:31:36;30.77;;;15.87;;
77701;SDS011;66868;42.708;23.404;2023-02-28T01:34:02;38.07;;;23.60;;
77701;SDS011;66868;42.708;23.404;2023-02-28T01:36:28;40.50;;;23.10;;
77701;SDS011;66868;42.708;23.404;2023-02-28T01:38:53;43.83;;;24.00;;
77701;SDS011;66868;42.708;23.404;2023-02-28T01:41:20;30.23;;;18.30;;
77701;SDS011;66868;42.708;23.404;2023-02-28T01:43:53;28.25;;;15.25;;
77701;SDS011;66868;42.708;23.404;2023-02-28T01:46:18;25.67;;;14.77;;
77701;SDS011;66868;42.708;23.404;2023-02-28T01:48:48;30.20;;;16.70;;
77701;SDS011;66868;42.708;23.404;2023-02-28T01:51:27;24.53;;;14.33;;
77701;SDS011;66868;42.708;23.404;2023-02-28T01:54:10;20.43;;;12.97;;
77701;SDS011;66868;42.708;23.404;2023-02-28T01:56:41;22.30;;;14.10;;
77701;SDS011;66868;42.708;23.404;2023-02-28T01:59:12;19.97;;;13.13;;
77701;SDS011;66868;42.708;23.404;2023-02-28T02:01:42;20.47;;;13.30;;
77701;SDS011;66868;42.708;23.404;2023-02-28T02:04:07;22.43;;;13.90;;
77701;SDS011;66868;42.708;23.404;2023-02-28T02:06:43;27.53;;;15.50;;
77701;SDS011;66868;42.708;23.404;2023-02-28T02:09:11;23.60;;;13.70;;
77701;SDS011;66868;42.708;23.404;2023-02-28T02:11:37;25.03;;;14.80;;
77701;SDS011;66868;42.708;23.404;2023-02-28T02:16:41;24.50;;;15.07;;
77701;SDS011;66868;42.708;23.404;2023-02-28T02:19:34;24.57;;;15.10;;
77701;SDS011;66868;42.708;23.404;2023-02-28T02:24:58;28.33;;;15.63;;
77701;SDS011;66868;42.708;23.404;2023-02-28T02:42:01;22.43;;;14.43;;
77701;SDS011;66868;42.708;23.404;2023-02-28T02:47:42;29.23;;;16.67;;
77701;SDS011;66868;42.708;23.404;2023-02-28T02:50:11;34.50;;;20.03;;
77701;SDS011;66868;42.708;23.404;2023-02-28T02:52:46;47.03;;;22.23;;
77701;SDS011;66868;42.708;23.404;2023-02-28T02:55:16;34.30;;;19.33;;
77701;SDS011;66868;42.708;23.404;2023-02-28T02:57:45;31.33;;;19.73;;
77701;SDS011;66868;42.708;23.404;2023-02-28T03:00:45;42.03;;;22.40;;
77701;SDS011;66868;42.708;23.404;2023-02-28T03:03:18;33.67;;;20.83;;
77701;SDS011;66868;42.708;23.404;2023-02-28T03:05:54;38.10;;;21.67;;
77701;SDS011;66868;42.708;23.404;2023-02-28T03:08:24;36.67;;;20.80;;
77701;SDS011;66868;42.708;23.404;2023-02-28T03:11:00;35.90;;;21.03;;
77701;SDS011;66868;42.708;23.404;2023-02-28T03:13:37;41.63;;;18.40;;
77701;SDS011;66868;42.708;23.404;2023-02-28T03:18:49;32.33;;;18.10;;
77701;SDS011;66868;42.708;23.404;2023-02-28T03:26:23;30.33;;;18.23;;
77701;SDS011;66868;42.708;23.404;2023-02-28T03:28:54;38.83;;;18.73;;
77701;SDS011;66868;42.708;23.404;2023-02-28T03:34:03;37.13;;;19.20;;
77701;SDS011;66868;42.708;23.404;2023-02-28T03:36:38;30.23;;;18.07;;
77701;SDS011;66868;42.708;23.404;2023-02-28T03:39:14;32.47;;;18.90;;
77701;SDS011;66868;42.708;23.404;2023-02-28T03:41:43;34.37;;;18.60;;
77701;SDS011;66868;42.708;23.404;2023-02-28T03:44:36;28.58;;;17.48;;
77701;SDS011;66868;42.708;23.404;2023-02-28T03:49:44;30.20;;;17.67;;
77701;SDS011;66868;42.708;23.404;2023-02-28T03:52:17;37.30;;;18.33;;
77701;SDS011;66868;42.708;23.404;2023-02-28T03:54:46;36.17;;;19.10;;
77701;SDS011;66868;42.708;23.404;2023-02-28T03:59:59;30.77;;;18.37;;
77701;SDS011;66868;42.708;23.404;2023-02-28T04:02:32;35.70;;;18.73;;
77701;SDS011;66868;42.708;23.404;2023-02-28T04:05:00;34.30;;;21.55;;
77701;SDS011;66868;42.708;23.404;2023-02-28T04:07:28;43.07;;;23.40;;
77701;SDS011;66868;42.708;23.404;2023-02-28T04:09:55;42.70;;;24.03;;
77701;SDS011;66868;42.708;23.404;2023-02-28T04:12:20;45.70;;;23.67;;
77701;SDS011;66868;42.708;23.404;2023-02-28T04:14:48;37.97;;;19.93;;
77701;SDS011;66868;42.708;23.404;2023-02-28T04:17:13;50.03;;;22.10;;
77701;SDS011;66868;42.708;23.404;2023-02-28T04:19:39;48.97;;;21.07;;
77701;SDS011;66868;42.708;23.404;2023-02-28T04:22:04;50.40;;;24.73;;
77701;SDS011;66868;42.708;23.404;2023-02-28T04:24:30;49.37;;;24.97;;
77701;SDS011;66868;42.708;23.404;2023-02-28T04:27:08;50.78;;;26.13;;
77701;SDS011;66868;42.708;23.404;2023-02-28T04:29:34;50.77;;;24.33;;
77701;SDS011;66868;42.708;23.404;2023-02-28T04:32:00;38.83;;;21.93;;
77701;SDS011;66868;42.708;23.404;2023-02-28T04:34:27;44.63;;;22.73;;
77701;SDS011;66868;42.708;23.404;2023-02-28T04:36:54;56.83;;;26.20;;
77701;SDS011;66868;42.708;23.404;2023-02-28T04:39:22;44.40;;;21.88;;
77701;SDS011;66868;42.708;23.404;2023-02-28T04:41:48;37.30;;;18.40;;
77701;SDS011;66868;42.708;23.404;2023-02-28T04:44:14;36.80;;;18.55;;
77701;SDS011;66868;42.708;23.404;2023-02-28T04:46:39;34.35;;;17.60;;
77701;SDS011;66868;42.708;23.404;2023-02-28T04:49:05;40.53;;;18.10;;
77701;SDS011;66868;42.708;23.404;2023-02-28T04:51:31;48.20;;;19.52;;
77701;SDS011;66868;42.708;23.404;2023-02-28T04:53:56;55.35;;;22.30;;
77701;SDS011;66868;42.708;23.404;2023-02-28T04:56:22;68.65;;;19.42;;
77701;SDS011;66868;42.708;23.404;2023-02-28T04:58:47;52.33;;;20.45;;
77701;SDS011;66868;42.708;23.404;2023-02-28T05:01:20;53.35;;;22.13;;
77701;SDS011;66868;42.708;23.404;2023-02-28T05:03:52;61.47;;;20.50;;
77701;SDS011;66868;42.708;23.404;2023-02-28T05:06:19;62.85;;;20.50;;
77701;SDS011;66868;42.708;23.404;2023-02-28T05:08:46;51.50;;;21.90;;
77701;SDS011;66868;42.708;23.404;2023-02-28T05:11:14;64.25;;;21.33;;
77701;SDS011;66868;42.708;23.404;2023-02-28T05:13:42;43.58;;;20.48;;
77701;SDS011;66868;42.708;23.404;2023-02-28T05:16:08;46.88;;;21.15;;
77701;SDS011;66868;42.708;23.404;2023-02-28T05:18:33;53.00;;;21.27;;
77701;SDS011;66868;42.708;23.404;2023-02-28T05:20:59;54.57;;;21.77;;
77701;SDS011;66868;42.708;23.404;2023-02-28T05:23:27;63.63;;;23.58;;
77701;SDS011;66868;42.708;23.404;2023-02-28T05:25:52;157.40;;;26.95;;
77701;SDS011;66868;42.708;23.404;2023-02-28T05:28:19;64.70;;;23.15;;
77701;SDS011;66868;42.708;23.404;2023-02-28T05:30:44;45.28;;;19.92;;
77701;SDS011;66868;42.708;23.404;2023-02-28T05:33:10;51.87;;;22.43;;
77701;SDS011;66868;42.708;23.404;2023-02-28T05:35:38;37.42;;;19.85;;
77701;SDS011;66868;42.708;23.404;2023-02-28T05:38:04;35.70;;;18.20;;
77701;SDS011;66868;42.708;23.404;2023-02-28T05:40:30;30.63;;;16.02;;
77701;SDS011;66868;42.708;23.404;2023-02-28T05:42:55;35.57;;;19.00;;
77701;SDS011;66868;42.708;23.404;2023-02-28T05:45:20;34.67;;;17.30;;
77701;SDS011;66868;42.708;23.404;2023-02-28T05:47:46;32.55;;;17.30;;
77701;SDS011;66868;42.708;23.404;2023-02-28T05:50:11;33.88;;;18.58;;
77701;SDS011;66868;42.708;23.404;2023-02-28T05:52:36;33.80;;;19.33;;
77701;SDS011;66868;42.708;23.404;2023-02-28T05:55:02;42.50;;;19.63;;
77701;SDS011;66868;42.708;23.404;2023-02-28T05:57:28;57.08;;;24.70;;
77701;SDS011;66868;42.708;23.404;2023-02-28T05:59:54;54.65;;;27.67;;
77701;SDS011;66868;42.708;23.404;2023-02-28T06:02:20;54.83;;;24.30;;
77701;SDS011;66868;42.708;23.404;2023-02-28T06:04:45;47.97;;;22.92;;
77701;SDS011;66868;42.708;23.404;2023-02-28T06:07:11;44.58;;;21.13;;
77701;SDS011;66868;42.708;23.404;2023-02-28T06:09:36;41.95;;;22.40;;
77701;SDS011;66868;42.708;23.404;2023-02-28T06:12:03;45.75;;;23.77;;
77701;SDS011;66868;42.708;23.404;2023-02-28T06:14:31;47.90;;;25.02;;
77701;SDS011;66868;42.708;23.404;2023-02-28T06:16:58;58.30;;;25.70;;
77701;SDS011;66868;42.708;23.404;2023-02-28T06:19:24;55.67;;;25.45;;
77701;SDS011;66868;42.708;23.404;2023-02-28T06:21:50;60.88;;;27.23;;
77701;SDS011;66868;42.708;23.404;2023-02-28T06:24:18;56.35;;;25.65;;
77701;SDS011;66868;42.708;23.404;2023-02-28T06:26:44;58.67;;;26.80;;
77701;SDS011;66868;42.708;23.404;2023-02-28T06:29:10;65.07;;;28.25;;
77701;SDS011;66868;42.708;23.404;2023-02-28T06:31:35;66.57;;;29.75;;
77701;SDS011;66868;42.708;23.404;2023-02-28T06:34:01;73.75;;;29.77;;
77701;SDS011;66868;42.708;23.404;2023-02-28T06:36:26;73.93;;;28.77;;
77701;SDS011;66868;42.708;23.404;2023-02-28T06:38:51;71.72;;;29.13;;
77701;SDS011;66868;42.708;23.404;2023-02-28T06:41:20;68.85;;;28.40;;
77701;SDS011;66868;42.708;23.404;2023-02-28T06:43:49;55.42;;;25.67;;
77701;SDS011;66868;42.708;23.404;2023-02-28T06:46:15;41.92;;;22.27;;
77701;SDS011;66868;42.708;23.404;2023-02-28T06:48:42;37.25;;;20.15;;
77701;SDS011;66868;42.708;23.404;2023-02-28T06:51:10;27.67;;;17.73;;
77701;SDS011;66868;42.708;23.404;2023-02-28T06:53:41;30.50;;;17.35;;
77701;SDS011;66868;42.708;23.404;2023-02-28T06:56:08;25.30;;;18.52;;
77701;SDS011;66868;42.708;23.404;2023-02-28T06:58:37;25.45;;;16.92;;
77701;SDS011;66868;42.708;23.404;2023-02-28T07:01:04;24.80;;;16.98;;
77701;SDS011;66868;42.708;23.404;2023-02-28T07:03:30;28.02;;;18.52;;
77701;SDS011;66868;42.708;23.404;2023-02-28T07:05:56;30.75;;;17.40;;
77701;SDS011;66868;42.708;23.404;2023-02-28T07:08:25;30.63;;;17.75;;
77701;SDS011;66868;42.708;23.404;2023-02-28T07:10:56;28.05;;;16.38;;
77701;SDS011;66868;42.708;23.404;2023-02-28T07:13:23;26.95;;;18.20;;
77701;SDS011;66868;42.708;23.404;2023-02-28T07:15:55;30.15;;;18.23;;
77701;SDS011;66868;42.708;23.404;2023-02-28T07:18:23;25.38;;;18.08;;
77701;SDS011;66868;42.708;23.404;2023-02-28T07:20:49;23.55;;;16.65;;
77701;SDS011;66868;42.708;23.404;2023-02-28T07:23:15;31.40;;;17.52;;
77701;SDS011;66868;42.708;23.404;2023-02-28T07:25:40;23.45;;;16.13;;
77701;SDS011;66868;42.708;23.404;2023-02-28T07:28:05;25.80;;;16.80;;
77701;SDS011;66868;42.708;23.404;2023-02-28T07:30:31;24.00;;;16.83;;
77701;SDS011;66868;42.708;23.404;2023-02-28T07:32:56;24.73;;;16.42;;
77701;SDS011;66868;42.708;23.404;2023-02-28T07:35:22;24.83;;;16.63;;
77701;SDS011;66868;42.708;23.404;2023-02-28T07:37:49;22.50;;;15.52;;
77701;SDS011;66868;42.708;23.404;2023-02-28T07:40:15;21.33;;;15.32;;
77701;SDS011;66868;42.708;23.404;2023-02-28T07:42:42;22.65;;;15.10;;
77701;SDS011;66868;42.708;23.404;2023-02-28T07:45:08;25.08;;;15.02;;
77701;SDS011;66868;42.708;23.404;2023-02-28T07:47:36;30.88;;;16.50;;
77701;SDS011;66868;42.708;23.404;2023-02-28T07:50:06;23.52;;;16.02;;
77701;SDS011;66868;42.708;23.404;2023-02-28T07:52:36;26.67;;;17.83;;
77701;SDS011;66868;42.708;23.404;2023-02-28T07:55:02;28.02;;;18.63;;
77701;SDS011;66868;42.708;23.404;2023-02-28T07:57:28;30.27;;;17.98;;
77701;SDS011;66868;42.708;23.404;2023-02-28T07:59:53;32.35;;;19.02;;
77701;SDS011;66868;42.708;23.404;2023-02-28T08:02:18;33.85;;;18.73;;
77701;SDS011;66868;42.708;23.404;2023-02-28T08:04:44;30.48;;;17.98;;
77701;SDS011;66868;42.708;23.404;2023-02-28T08:07:12;29.88;;;19.38;;
77701;SDS011;66868;42.708;23.404;2023-02-28T08:09:39;35.30;;;19.10;;
77701;SDS011;66868;42.708;23.404;2023-02-28T08:12:05;46.97;;;21.73;;
77701;SDS011;66868;42.708;23.404;2023-02-28T08:14:31;33.78;;;20.45;;
77701;SDS011;66868;42.708;23.404;2023-02-28T08:16:57;34.25;;;18.45;;
77701;SDS011;66868;42.708;23.404;2023-02-28T08:19:22;33.97;;;18.83;;
77701;SDS011;66868;42.708;23.404;2023-02-28T08:21:47;36.97;;;17.13;;
77701;SDS011;66868;42.708;23.404;2023-02-28T08:24:13;36.63;;;18.20;;
77701;SDS011;66868;42.708;23.404;2023-02-28T08:26:38;32.58;;;16.70;;
77701;SDS011;66868;42.708;23.404;2023-02-28T08:29:04;44.17;;;17.60;;
77701;SDS011;66868;42.708;23.404;2023-02-28T08:31:29;33.40;;;15.85;;
77701;SDS011;66868;42.708;23.404;2023-02-28T08:34:02;34.97;;;15.63;;
77701;SDS011;66868;42.708;23.404;2023-02-28T08:36:35;31.05;;;15.98;;
77701;SDS011;66868;42.708;23.404;2023-02-28T08:39:02;25.98;;;15.48;;
77701;SDS011;66868;42.708;23.404;2023-02-28T08:41:28;30.58;;;16.20;;
77701;SDS011;66868;42.708;23.404;2023-02-28T08:43:53;42.78;;;17.23;;
77701;SDS011;66868;42.708;23.404;2023-02-28T08:46:19;31.15;;;16.08;;
77701;SDS011;66868;42.708;23.404;2023-02-28T08:48:44;36.40;;;16.90;;
77701;SDS011;66868;42.708;23.404;2023-02-28T08:51:11;35.15;;;16.30;;
77701;SDS011;66868;42.708;23.404;2023-02-28T08:53:39;33.15;;;17.42;;
77701;SDS011;66868;42.708;23.404;2023-02-28T08:56:06;41.50;;;18.38;;
77701;SDS011;66868;42.708;23.404;2023-02-28T08:58:34;28.92;;;16.42;;
77701;SDS011;66868;42.708;23.404;2023-02-28T09:01:00;35.60;;;16.55;;
77701;SDS011;66868;42.708;23.404;2023-02-28T09:03:31;25.30;;;15.90;;
77701;SDS011;66868;42.708;23.404;2023-02-28T09:05:58;29.13;;;14.55;;
77701;SDS011;66868;42.708;23.404;2023-02-28T09:08:28;29.40;;;15.38;;
77701;SDS011;66868;42.708;23.404;2023-02-28T09:10:55;28.00;;;13.93;;
77701;SDS011;66868;42.708;23.404;2023-02-28T09:13:23;30.40;;;14.98;;
77701;SDS011;66868;42.708;23.404;2023-02-28T09:15:51;24.55;;;15.07;;
77701;SDS011;66868;42.708;23.404;2023-02-28T09:18:18;25.73;;;14.35;;
77701;SDS011;66868;42.708;23.404;2023-02-28T09:20:44;24.50;;;14.77;;
77701;SDS011;66868;42.708;23.404;2023-02-28T09:23:10;27.75;;;14.13;;
77701;SDS011;66868;42.708;23.404;2023-02-28T09:25:37;27.20;;;14.85;;
77701;SDS011;66868;42.708;23.404;2023-02-28T09:28:10;34.63;;;14.73;;
77701;SDS011;66868;42.708;23.404;2023-02-28T09:30:36;27.70;;;14.23;;
77701;SDS011;66868;42.708;23.404;2023-02-28T09:33:01;24.85;;;13.05;;
77701;SDS011;66868;42.708;23.404;2023-02-28T09:35:27;22.48;;;12.93;;
77701;SDS011;66868;42.708;23.404;2023-02-28T09:37:52;21.67;;;12.80;;
77701;SDS011;66868;42.708;23.404;2023-02-28T09:40:35;23.48;;;12.45;;
77701;SDS011;66868;42.708;23.404;2023-02-28T09:43:04;24.02;;;12.07;;
77701;SDS011;66868;42.708;23.404;2023-02-28T09:45:35;32.47;;;13.55;;
77701;SDS011;66868;42.708;23.404;2023-02-28T09:48:10;24.48;;;12.32;;
77701;SDS011;66868;42.708;23.404;2023-02-28T09:50:41;20.80;;;11.82;;
77701;SDS011;66868;42.708;23.404;2023-02-28T09:53:20;20.75;;;12.55;;
77701;SDS011;66868;42.708;23.404;2023-02-28T09:55:53;17.90;;;10.38;;
77701;SDS011;66868;42.708;23.404;2023-02-28T09:58:33;19.27;;;11.70;;
77701;SDS011;66868;42.708;23.404;2023-02-28T10:01:31;20.05;;;11.43;;
77701;SDS011;66868;42.708;23.404;2023-02-28T10:07:10;20.17;;;10.90;;
77701;SDS011;66868;42.708;23.404;2023-02-28T10:09:46;21.15;;;11.70;;
77701;SDS011;66868;42.708;23.404;2023-02-28T10:12:18;24.45;;;11.98;;
77701;SDS011;66868;42.708;23.404;2023-02-28T10:14:45;22.88;;;12.18;;
77701;SDS011;66868;42.708;23.404;2023-02-28T10:17:15;21.25;;;11.40;;
77701;SDS011;66868;42.708;23.404;2023-02-28T10:25:17;24.02;;;13.02;;
77701;SDS011;66868;42.708;23.404;2023-02-28T10:27:47;20.63;;;12.48;;
77701;SDS011;66868;42.708;23.404;2023-02-28T10:30:12;21.02;;;12.75;;
77701;SDS011;66868;42.708;23.404;2023-02-28T10:32:43;22.63;;;11.75;;
77701;SDS011;66868;42.708;23.404;2023-02-28T10:35:18;20.33;;;11.02;;
77701;SDS011;66868;42.708;23.404;2023-02-28T10:37:55;22.80;;;12.30;;
77701;SDS011;66868;42.708;23.404;2023-02-28T10:43:17;26.80;;;12.05;;
77701;SDS011;66868;42.708;23.404;2023-02-28T10:45:55;23.83;;;12.02;;
77701;SDS011;66868;42.708;23.404;2023-02-28T10:55:56;24.13;;;12.68;;
77701;SDS011;66868;42.708;23.404;2023-02-28T10:58:26;25.70;;;13.88;;
77701;SDS011;66868;42.708;23.404;2023-02-28T11:00:56;22.40;;;11.93;;
77701;SDS011;66868;42.708;23.404;2023-02-28T11:03:25;26.13;;;12.93;;
77701;SDS011;66868;42.708;23.404;2023-02-28T11:05:55;26.77;;;13.35;;
77701;SDS011;66868;42.708;23.404;2023-02-28T11:08:21;33.83;;;13.45;;
77701;SDS011;66868;42.708;23.404;2023-02-28T11:10:47;20.95;;;12.82;;
77701;SDS011;66868;42.708;23.404;2023-02-28T11:13:19;20.13;;;13.45;;
77701;SDS011;66868;42.708;23.404;2023-02-28T11:15:52;23.83;;;12.63;;
77701;SDS011;66868;42.708;23.404;2023-02-28T11:20:54;25.17;;;13.55;;
77701;SDS011;66868;42.708;23.404;2023-02-28T11:23:21;29.42;;;12.60;;
77701;SDS011;66868;42.708;23.404;2023-02-28T11:25:52;24.60;;;13.18;;
77701;SDS011;66868;42.708;23.404;2023-02-28T11:28:34;23.60;;;13.63;;
77701;SDS011;66868;42.708;23.404;2023-02-28T11:36:31;21.73;;;13.63;;
77701;SDS011;66868;42.708;23.404;2023-02-28T11:39:22;30.60;;;11.88;;
77701;SDS011;66868;42.708;23.404;2023-02-28T11:41:59;28.42;;;12.20;;
77701;SDS011;66868;42.708;23.404;2023-02-28T11:47:48;22.23;;;12.25;;
77701;SDS011;66868;42.708;23.404;2023-02-28T12:15:51;17.00;;;9.93;;
77701;SDS011;66868;42.708;23.404;2023-02-28T12:18:49;22.23;;;11.70;;
77701;SDS011;66868;42.708;23.404;2023-02-28T12:26:55;21.42;;;9.93;;
77701;SDS011;66868;42.708;23.404;2023-02-28T12:29:30;23.58;;;11.55;;
77701;SDS011;66868;42.708;23.404;2023-02-28T12:34:53;19.40;;;11.82;;
77701;SDS011;66868;42.708;23.404;2023-02-28T12:37:47;24.00;;;12.13;;
77701;SDS011;66868;42.708;23.404;2023-02-28T12:40:17;18.95;;;11.52;;
77701;SDS011;66868;42.708;23.404;2023-02-28T12:42:50;21.73;;;11.45;;
77701;SDS011;66868;42.708;23.404;2023-02-28T12:47:57;23.85;;;10.88;;
77701;SDS011;66868;42.708;23.404;2023-02-28T12:50:26;33.05;;;12.40;;
77701;SDS011;66868;42.708;23.404;2023-02-28T12:53:00;22.80;;;11.80;;
77701;SDS011;66868;42.708;23.404;2023-02-28T12:55:35;22.35;;;11.15;;
77701;SDS011;66868;42.708;23.404;2023-02-28T13:09:20;20.92;;;12.23;;
77701;SDS011;66868;42.708;23.404;2023-02-28T13:11:49;21.17;;;11.18;;
77701;SDS011;66868;42.708;23.404;2023-02-28T13:17:21;30.02;;;11.40;;
77701;SDS011;66868;42.708;23.404;2023-02-28T13:27:59;18.90;;;10.63;;
77701;SDS011;66868;42.708;23.404;2023-02-28T13:35:56;36.65;;;11.98;;
77701;SDS011;66868;42.708;23.404;2023-02-28T13:38:37;25.40;;;11.52;;
77701;SDS011;66868;42.708;23.404;2023-02-28T13:44:10;21.38;;;9.38;;
77701;SDS011;66868;42.708;23.404;2023-02-28T14:00:20;19.85;;;8.93;;
77701;SDS011;66868;42.708;23.404;2023-02-28T14:03:03;16.30;;;8.38;;
77701;SDS011;66868;42.708;23.404;2023-02-28T14:05:42;21.85;;;9.70;;
77701;SDS011;66868;42.708;23.404;2023-02-28T14:08:12;20.58;;;9.73;;
77701;SDS011;66868;42.708;23.404;2023-02-28T14:10:46;22.63;;;10.82;;
77701;SDS011;66868;42.708;23.404;2023-02-28T14:13:35;25.73;;;11.15;;
77701;SDS011;66868;42.708;23.404;2023-02-28T14:16:17;18.58;;;9.85;;
77701;SDS011;66868;42.708;23.404;2023-02-28T14:18:50;17.75;;;10.40;;
77701;SDS011;66868;42.708;23.404;2023-02-28T14:32:35;24.60;;;11.52;;
77701;SDS011;66868;42.708;23.404;2023-02-28T14:37:52;20.70;;;11.32;;
77701;SDS011;66868;42.708;23.404;2023-02-28T14:40:27;20.73;;;9.55;;
77701;SDS011;66868;42.708;23.404;2023-02-28T14:42:56;20.42;;;9.40;;
77701;SDS011;66868;42.708;23.404;2023-02-28T14:45:24;17.73;;;9.90;;
77701;SDS011;66868;42.708;23.404;2023-02-28T14:47:54;21.35;;;10.15;;
77701;SDS011;66868;42.708;23.404;2023-02-28T14:50:21;21.90;;;9.68;;
77701;SDS011;66868;42.708;23.404;2023-02-28T14:52:50;18.23;;;9.48;;
77701;SDS011;66868;42.708;23.404;2023-02-28T14:55:18;15.48;;;9.65;;
77701;SDS011;66868;42.708;23.404;2023-02-28T14:57:52;16.98;;;9.30;;
77701;SDS011;66868;42.708;23.404;2023-02-28T15:00:26;18.13;;;9.10;;
77701;SDS011;66868;42.708;23.404;2023-02-28T15:02:54;13.80;;;9.23;;
77701;SDS011;66868;42.708;23.404;2023-02-28T15:05:30;16.95;;;10.18;;
77701;SDS011;66868;42.708;23.404;2023-02-28T15:08:05;13.63;;;9.02;;
77701;SDS011;66868;42.708;23.404;2023-02-28T15:10:35;16.77;;;10.57;;
77701;SDS011;66868;42.708;23.404;2023-02-28T15:13:05;24.58;;;13.80;;
77701;SDS011;66868;42.708;23.404;2023-02-28T15:21:21;15.65;;;9.55;;
77701;SDS011;66868;42.708;23.404;2023-02-28T15:23:51;13.57;;;8.90;;
77701;SDS011;66868;42.708;23.404;2023-02-28T15:26:20;13.30;;;9.00;;
77701;SDS011;66868;42.708;23.404;2023-02-28T15:28:53;14.93;;;9.43;;
77701;SDS011;66868;42.708;23.404;2023-02-28T15:31:28;11.07;;;8.48;;
77701;SDS011;66868;42.708;23.404;2023-02-28T15:33:57;16.67;;;9.50;;
77701;SDS011;66868;42.708;23.404;2023-02-28T15:36:29;16.50;;;9.70;;
77701;SDS011;66868;42.708;23.404;2023-02-28T15:38:58;12.10;;;9.88;;
77701;SDS011;66868;42.708;23.404;2023-02-28T15:41:26;18.10;;;10.20;;
77701;SDS011;66868;42.708;23.404;2023-02-28T15:44:13;16.20;;;11.13;;
77701;SDS011;66868;42.708;23.404;2023-02-28T15:46:40;15.63;;;10.85;;
77701;SDS011;66868;42.708;23.404;2023-02-28T15:49:18;19.02;;;12.00;;
77701;SDS011;66868;42.708;23.404;2023-02-28T15:51:45;11.90;;;9.75;;
77701;SDS011;66868;42.708;23.404;2023-02-28T15:54:12;20.77;;;10.23;;
77701;SDS011;66868;42.708;23.404;2023-02-28T15:56:44;12.43;;;8.20;;
77701;SDS011;66868;42.708;23.404;2023-02-28T15:59:15;14.38;;;10.20;;
77701;SDS011;66868;42.708;23.404;2023-02-28T16:01:44;17.70;;;10.45;;
77701;SDS011;66868;42.708;23.404;2023-02-28T16:04:19;11.27;;;9.35;;
77701;SDS011;66868;42.708;23.404;2023-02-28T16:09:30;13.25;;;8.10;;
77701;SDS011;66868;42.708;23.404;2023-02-28T16:11:56;15.88;;;8.10;;
77701;SDS011;66868;42.708;23.404;2023-02-28T16:14:30;15.52;;;8.85;;
77701;SDS011;66868;42.708;23.404;2023-02-28T16:16:57;14.50;;;8.88;;
77701;SDS011;66868;42.708;23.404;2023-02-28T16:19:29;14.52;;;9.50;;
77701;SDS011;66868;42.708;23.404;2023-02-28T16:21:55;20.77;;;12.02;;
77701;SDS011;66868;42.708;23.404;2023-02-28T16:24:21;17.40;;;10.68;;
77701;SDS011;66868;42.708;23.404;2023-02-28T16:26:48;17.90;;;9.77;;
77701;SDS011;66868;42.708;23.404;2023-02-28T16:29:22;18.83;;;9.45;;
77701;SDS011;66868;42.708;23.404;2023-02-28T16:31:51;14.70;;;8.23;;
77701;SDS011;66868;42.708;23.404;2023-02-28T16:34:18;17.80;;;10.60;;
77701;SDS011;66868;42.708;23.404;2023-02-28T16:36:46;16.65;;;9.25;;
77701;SDS011;66868;42.708;23.404;2023-02-28T16:39:11;13.77;;;8.63;;
77701;SDS011;66868;42.708;23.404;2023-02-28T16:41:37;16.15;;;8.15;;
77701;SDS011;66868;42.708;23.404;2023-02-28T16:44:02;22.38;;;7.55;;
77701;SDS011;66868;42.708;23.404;2023-02-28T16:46:38;13.20;;;7.03;;
77701;SDS011;66868;42.708;23.404;2023-02-28T16:49:04;11.13;;;7.15;;
77701;SDS011;66868;42.708;23.404;2023-02-28T16:51:29;10.10;;;6.75;;
77701;SDS011;66868;42.708;23.404;2023-02-28T16:53:54;11.00;;;8.27;;
77701;SDS011;66868;42.708;23.404;2023-02-28T16:56:20;11.52;;;7.15;;
77701;SDS011;66868;42.708;23.404;2023-02-28T16:58:49;9.45;;;6.15;;
77701;SDS011;66868;42.708;23.404;2023-02-28T17:01:15;7.78;;;5.85;;
77701;SDS011;66868;42.708;23.404;2023-02-28T17:03:41;11.85;;;6.38;;
77701;SDS011;66868;42.708;23.404;2023-02-28T17:06:17;9.50;;;5.93;;
77701;SDS011;66868;42.708;23.404;2023-02-28T17:08:47;7.03;;;5.20;;
77701;SDS011;66868;42.708;23.404;2023-02-28T17:11:13;9.98;;;4.97;;
77701;SDS011;66868;42.708;23.404;2023-02-28T17:13:38;8.32;;;5.57;;
77701;SDS011;66868;42.708;23.404;2023-02-28T17:16:03;12.23;;;5.70;;